AirNav   Everest Fuels
 
 1426 users online  

X58 Indiantown Airport
Indiantown, Florida, USA

GOING TO INDIANTOWN?


FAA INFORMATION EFFECTIVE 31 JANUARY 2019

Location

FAA Identifier: X58
Lat/Long: 27-02-15.0000N / 080-26-27.6000W
27-02.250000N / 080-26.460000W
27.0375000 / -80.4410000
(estimated)
Elevation: 30 ft. / 9 m (estimated)
Variation: 03W (1985)
From city: 2 miles NE of INDIANTOWN, FL
Time zone: UTC -5 (UTC -4 during Daylight Saving Time)
Zip code: 34956

Airport Operations

Airport use: Open to the public
Activation date: 02/1963
Control tower: no
ARTCC: MIAMI CENTER
FSS: MIAMI FLIGHT SERVICE STATION
NOTAMs facility: MIA (NOTAM-D service available)
Attendance: UNATNDD
Wind indicator: yes
Segmented circle: no
Landing fee: yes

Airport Communications

CTAF/UNICOM: 123.0
WX AWOS-3 at SUA (15 nm NE): PHONE 772-692-7399
WX AWOS-3 at F45 (16 nm SE): 119.975 (561-630-6932)

Nearby radio navigation aids

VOR radial/distance  VOR name  Freq  Var
PHKr041/20.3PAHOKEE VOR/DME115.4000E
PBIr321/28.6PALM BEACH VORTAC115.7003W
TRVr183/38.5TREASURE VORTAC117.3007W

 
NDB name  Hdg/Dist  Freq  Var  ID
UNITED329/9.640505WUTX ..- - -..-
FORT PIERCE195/27.227507WFPR ..-. .--. .-.

Airport Services

Fuel available: 100LL
FUEL AVBL WITH CREDIT CARD ONLY.
Parking: hangars and tiedowns
Airframe service: MAJOR
Powerplant service: MAJOR
Bottled oxygen: NONE
Bulk oxygen: NONE

Runway Information

Runway 13/31

Dimensions: 6300 x 75 ft. / 1920 x 23 m
Surface: turf, in good condition
Runway edge markings: RY 13 /31 DSPLCD THLDS & RY SIDES MKD WITH WHITE PAVING STONES AND WHITE PVC MARKERS.
Gradient: DATA ESTD.
RUNWAY 13  RUNWAY 31
Latitude: 27-02.607667N27-01.891333N
Longitude: 080-26.881167W080-26.039000W
Gradient: 0.1%0.1%
Traffic pattern: leftleft
Displaced threshold: 600 ft.300 ft.
Obstructions: 37 ft. tree, 1175 ft. from runway, 32:1 slope to clear14 ft. road, 280 ft. from runway, 125 ft. right of centerline, 20:1 slope to clear

Airport Ownership and Management from official FAA records

Ownership: Privately-owned
Owner: INDIANTOWN INTERNATIONAL INC.
PO BOX 1234
INDIANTOWN, FL 34956-1234
Phone 772-597-5800
CONTACT PERSON: CLYDE DAWSON
Manager: CLYDE DAWSON
PO BOX 1234
INDIANTOWN, FL 34956-1234
Phone 772-597-5800
AIRPORT PHYSICAL ADDRESS: 20654 SOUTHWEST CITRUS BOULEVARD, INDIANTOWN FL 34956 FAX: 772-597-5805

Airport Operational Statistics

Aircraft based on the field: 64
Single engine airplanes: 57
Multi engine airplanes: 2
Helicopters: 5
    
Aircraft operations: avg 96/week *
80% local general aviation
20% transient general aviation
* for 12-month period ending 10 January 2018

Additional Remarks

STANDING WATER AT RY EDGES AFTER RAIN.
PPR FOR TSNT ACFT TRNG CALL 772-597-5800
LANDING FEE CURRENTLY IN EFFECT.
$10 LANDING FEE WAIVED WITH FUEL PURCHASE.
NO TOUCH AND GO LNDGS.
ARPT CLSD EXC TO POWERED F/W ACFT.

Instrument Procedures

There are no published instrument procedures at X58.

Some nearby airports with instrument procedures:

06FA - William P Gwinn Airport (10 nm SE)
KSUA - Witham Field Airport (15 nm NE)
F45 - North Palm Beach County General Aviation Airport (16 nm SE)
KPHK - Palm Beach County Glades Airport (20 nm SW)
KOBE - Okeechobee County Airport (26 nm NW)
 
Loc | Ops | Rwys | IFR | FBO | Links
Com | Nav | Svcs | Stats | Notes

Reliance Aviation
AirBoss

 
Area around X58 (Indiantown Airport)
 
Road maps at: MapQuest Bing Google
 
Aerial photo
WARNING: Photo may not be current or correct
Aerial photo of X58 (Indiantown Airport)
Photo taken 17-Jun-2010

Do you have a better or more recent aerial photo of Indiantown Airport that you would like to share? If so, please send us your photo.

 
Sectional chart

 
Airport distance calculator
Flying to Indiantown Airport? Find the distance to fly.

From to X58

Sunrise and sunset
Times for 21-Feb-2019
 Local
(UTC-5)
 Zulu
(UTC)
Morning civil twilight06:3111:31
Sunrise06:5411:54
Sunset18:1723:17
Evening civil twilight18:4023:40

Current date and time
Zulu (UTC)  21-Feb-2019 21:01:16
Local (UTC-5)  21-Feb-2019 16:01:16
 
METAR
KSUA 
15nm NE 
212047Z 13014G22KT 7SM SCT020 28/19 A3010
KF45 
16nm SE 
212055Z AUTO 15010G15KT 10SM CLR 29/18 A3008 RMK AO2
KOBE 
26nm NW 
212055Z AUTO 16009KT 115V175 CLR 29/20 A3007 RMK AO2 PWINO
KFPR 
28nm N 
212053Z 13017KT 10SM CLR 27/20 A3008 RMK AO2 SLP186 T02720200 56017
KPBI 
28nm SE 
212053Z 13016KT 10SM SCT030 28/19 A3010 RMK AO2 SLP191 T02780194 56015 $
TAF
KSUA 
15nm NE 
211730Z 2118/2218 14013G18KT P6SM FEW035 SCT050 FM220100 14005KT P6SM BKN050 FM220800 VRB02KT 5SM BR SKC FM221400 14008KT P6SM SCT030
NOTAMs
Click for the latest NOTAMs
NOTAMs are issued by the DoD/FAA and will open in a separate window not controlled by AirNav.

 

 
 

FBO, Fuel Providers, and Aircraft Ground Support

  
 Business Name 
 
 Contact 
 
 Services / Description 
 
Fuel Prices
 
Comments
  
X-58, Inc. 772-597-5800
no information available

If you are affiliated with X-58, Inc. and would like to show here your services, contact info, web link, logo, and more, click here
100LL
SS $4.55 
 Updated 08-Dec-2016
 
   write
SS=Self service
Update Fuel Prices
 

Would you like to see your business listed on this page?

 If your business provides an interesting product or service to pilots, flight crews, aircraft, or users of the Indiantown Airport, you should consider listing it here.  To start the listing process, click on the button below
 
Add a business
 

Other Pages about Indiantown Airport

Update a link
 
Copyright © AirNav, LLC. All rights reserved. Privacy Policy  Contact